sensor_id;sensor_type;location;lat;lon;timestamp;P1;durP1;ratioP1;P2;durP2;ratioP2
14414;SDS011;7307;50.852;4.314;2022-11-02T00:01:28;1.70;;;0.90;;
14414;SDS011;7307;50.852;4.314;2022-11-02T00:04:01;2.50;;;1.00;;
14414;SDS011;7307;50.852;4.314;2022-11-02T00:06:27;3.50;;;1.30;;
14414;SDS011;7307;50.852;4.314;2022-11-02T00:08:52;2.90;;;0.93;;
14414;SDS011;7307;50.852;4.314;2022-11-02T00:11:18;2.57;;;1.13;;
14414;SDS011;7307;50.852;4.314;2022-11-02T00:13:43;2.47;;;0.90;;
14414;SDS011;7307;50.852;4.314;2022-11-02T00:16:10;2.33;;;0.73;;
14414;SDS011;7307;50.852;4.314;2022-11-02T00:18:38;3.83;;;1.00;;
14414;SDS011;7307;50.852;4.314;2022-11-02T00:21:06;4.03;;;0.90;;
14414;SDS011;7307;50.852;4.314;2022-11-02T00:23:31;3.77;;;1.00;;
14414;SDS011;7307;50.852;4.314;2022-11-02T00:25:58;2.53;;;1.00;;
14414;SDS011;7307;50.852;4.314;2022-11-02T00:28:26;3.00;;;0.83;;
14414;SDS011;7307;50.852;4.314;2022-11-02T00:30:52;3.53;;;1.30;;
14414;SDS011;7307;50.852;4.314;2022-11-02T00:33:18;3.73;;;0.70;;
14414;SDS011;7307;50.852;4.314;2022-11-02T00:35:44;3.13;;;0.90;;
14414;SDS011;7307;50.852;4.314;2022-11-02T00:38:10;2.60;;;1.00;;
14414;SDS011;7307;50.852;4.314;2022-11-02T00:40:36;2.73;;;1.23;;
14414;SDS011;7307;50.852;4.314;2022-11-02T00:43:02;2.93;;;0.90;;
14414;SDS011;7307;50.852;4.314;2022-11-02T00:45:27;2.73;;;1.07;;
14414;SDS011;7307;50.852;4.314;2022-11-02T00:47:53;3.40;;;0.97;;
14414;SDS011;7307;50.852;4.314;2022-11-02T00:50:19;2.60;;;0.90;;
14414;SDS011;7307;50.852;4.314;2022-11-02T00:52:45;3.93;;;1.30;;
14414;SDS011;7307;50.852;4.314;2022-11-02T00:55:10;2.07;;;0.90;;
14414;SDS011;7307;50.852;4.314;2022-11-02T00:57:37;3.83;;;0.93;;
14414;SDS011;7307;50.852;4.314;2022-11-02T01:00:04;4.13;;;1.03;;
14414;SDS011;7307;50.852;4.314;2022-11-02T01:02:32;3.00;;;0.97;;
14414;SDS011;7307;50.852;4.314;2022-11-02T01:04:58;5.23;;;1.10;;
14414;SDS011;7307;50.852;4.314;2022-11-02T01:07:24;1.50;;;0.87;;
14414;SDS011;7307;50.852;4.314;2022-11-02T01:09:51;4.17;;;1.00;;
14414;SDS011;7307;50.852;4.314;2022-11-02T01:12:17;1.53;;;0.80;;
14414;SDS011;7307;50.852;4.314;2022-11-02T01:14:44;2.33;;;1.00;;
14414;SDS011;7307;50.852;4.314;2022-11-02T01:17:10;3.00;;;1.00;;
14414;SDS011;7307;50.852;4.314;2022-11-02T01:19:36;3.00;;;1.17;;
14414;SDS011;7307;50.852;4.314;2022-11-02T01:22:01;2.57;;;1.13;;
14414;SDS011;7307;50.852;4.314;2022-11-02T01:24:28;4.20;;;1.10;;
14414;SDS011;7307;50.852;4.314;2022-11-02T01:26:54;2.60;;;1.20;;
14414;SDS011;7307;50.852;4.314;2022-11-02T01:29:19;3.37;;;1.03;;
14414;SDS011;7307;50.852;4.314;2022-11-02T01:31:45;1.77;;;0.83;;
14414;SDS011;7307;50.852;4.314;2022-11-02T01:34:12;2.83;;;0.70;;
14414;SDS011;7307;50.852;4.314;2022-11-02T01:36:37;2.63;;;1.00;;
14414;SDS011;7307;50.852;4.314;2022-11-02T01:39:03;3.13;;;1.40;;
14414;SDS011;7307;50.852;4.314;2022-11-02T01:41:29;3.13;;;1.00;;
14414;SDS011;7307;50.852;4.314;2022-11-02T01:43:55;3.37;;;0.80;;
14414;SDS011;7307;50.852;4.314;2022-11-02T01:46:44;2.20;;;0.90;;
14414;SDS011;7307;50.852;4.314;2022-11-02T01:49:13;2.83;;;1.00;;
14414;SDS011;7307;50.852;4.314;2022-11-02T01:54:19;2.80;;;1.17;;
14414;SDS011;7307;50.852;4.314;2022-11-02T01:56:50;2.67;;;0.90;;
14414;SDS011;7307;50.852;4.314;2022-11-02T01:59:22;1.67;;;1.00;;
14414;SDS011;7307;50.852;4.314;2022-11-02T02:01:54;4.67;;;1.40;;
14414;SDS011;7307;50.852;4.314;2022-11-02T02:04:20;4.63;;;1.50;;
14414;SDS011;7307;50.852;4.314;2022-11-02T02:06:47;3.80;;;1.07;;
14414;SDS011;7307;50.852;4.314;2022-11-02T02:09:14;3.07;;;1.00;;
14414;SDS011;7307;50.852;4.314;2022-11-02T02:11:40;3.73;;;1.50;;
14414;SDS011;7307;50.852;4.314;2022-11-02T02:19:43;3.90;;;1.30;;
14414;SDS011;7307;50.852;4.314;2022-11-02T02:28:11;4.10;;;1.30;;
14414;SDS011;7307;50.852;4.314;2022-11-02T02:30:45;2.77;;;0.83;;
14414;SDS011;7307;50.852;4.314;2022-11-02T02:36:05;6.40;;;1.23;;
14414;SDS011;7307;50.852;4.314;2022-11-02T02:38:55;2.17;;;1.10;;
14414;SDS011;7307;50.852;4.314;2022-11-02T02:44:09;2.90;;;1.40;;
14414;SDS011;7307;50.852;4.314;2022-11-02T02:49:43;2.50;;;0.83;;
14414;SDS011;7307;50.852;4.314;2022-11-02T02:52:28;3.10;;;1.00;;
14414;SDS011;7307;50.852;4.314;2022-11-02T02:54:56;3.53;;;1.00;;
14414;SDS011;7307;50.852;4.314;2022-11-02T02:57:23;2.97;;;1.10;;
14414;SDS011;7307;50.852;4.314;2022-11-02T02:59:51;2.77;;;1.10;;
14414;SDS011;7307;50.852;4.314;2022-11-02T03:02:20;2.33;;;1.10;;
14414;SDS011;7307;50.852;4.314;2022-11-02T03:04:48;3.57;;;1.00;;
14414;SDS011;7307;50.852;4.314;2022-11-02T03:07:17;3.00;;;1.50;;
14414;SDS011;7307;50.852;4.314;2022-11-02T03:09:50;3.10;;;1.07;;
14414;SDS011;7307;50.852;4.314;2022-11-02T03:23:37;2.47;;;0.90;;
14414;SDS011;7307;50.852;4.314;2022-11-02T03:26:14;3.83;;;1.10;;
14414;SDS011;7307;50.852;4.314;2022-11-02T03:31:56;1.93;;;1.00;;
14414;SDS011;7307;50.852;4.314;2022-11-02T03:34:40;2.70;;;1.00;;
14414;SDS011;7307;50.852;4.314;2022-11-02T03:40:02;1.47;;;0.90;;
14414;SDS011;7307;50.852;4.314;2022-11-02T03:42:36;3.10;;;1.23;;
14414;SDS011;7307;50.852;4.314;2022-11-02T03:45:12;3.13;;;1.00;;
14414;SDS011;7307;50.852;4.314;2022-11-02T03:47:41;4.27;;;1.50;;
14414;SDS011;7307;50.852;4.314;2022-11-02T03:50:11;4.60;;;1.20;;
14414;SDS011;7307;50.852;4.314;2022-11-02T03:52:41;2.87;;;1.10;;
14414;SDS011;7307;50.852;4.314;2022-11-02T03:55:11;2.67;;;1.10;;
14414;SDS011;7307;50.852;4.314;2022-11-02T03:57:43;2.43;;;1.10;;
14414;SDS011;7307;50.852;4.314;2022-11-02T04:00:17;3.33;;;1.00;;
14414;SDS011;7307;50.852;4.314;2022-11-02T04:02:49;1.70;;;0.90;;
14414;SDS011;7307;50.852;4.314;2022-11-02T04:05:17;2.17;;;1.10;;
14414;SDS011;7307;50.852;4.314;2022-11-02T04:07:45;2.93;;;1.17;;
14414;SDS011;7307;50.852;4.314;2022-11-02T04:10:33;3.43;;;1.30;;
14414;SDS011;7307;50.852;4.314;2022-11-02T04:12:59;2.67;;;1.20;;
14414;SDS011;7307;50.852;4.314;2022-11-02T04:15:43;2.60;;;1.10;;
14414;SDS011;7307;50.852;4.314;2022-11-02T04:18:09;3.20;;;1.27;;
14414;SDS011;7307;50.852;4.314;2022-11-02T04:20:53;1.43;;;0.83;;
14414;SDS011;7307;50.852;4.314;2022-11-02T04:23:19;1.73;;;1.10;;
14414;SDS011;7307;50.852;4.314;2022-11-02T04:26:03;3.97;;;1.10;;
14414;SDS011;7307;50.852;4.314;2022-11-02T04:28:29;2.90;;;1.20;;
14414;SDS011;7307;50.852;4.314;2022-11-02T04:30:58;3.10;;;1.10;;
14414;SDS011;7307;50.852;4.314;2022-11-02T04:33:24;3.57;;;0.80;;
14414;SDS011;7307;50.852;4.314;2022-11-02T04:36:00;3.37;;;1.03;;
14414;SDS011;7307;50.852;4.314;2022-11-02T04:38:26;3.17;;;1.00;;
14414;SDS011;7307;50.852;4.314;2022-11-02T04:41:04;2.53;;;1.10;;
14414;SDS011;7307;50.852;4.314;2022-11-02T04:43:50;1.60;;;0.83;;
14414;SDS011;7307;50.852;4.314;2022-11-02T04:46:16;6.20;;;1.60;;
14414;SDS011;7307;50.852;4.314;2022-11-02T04:48:41;3.53;;;1.33;;
14414;SDS011;7307;50.852;4.314;2022-11-02T04:51:07;4.17;;;1.33;;
14414;SDS011;7307;50.852;4.314;2022-11-02T04:53:32;2.43;;;1.30;;
14414;SDS011;7307;50.852;4.314;2022-11-02T04:55:59;3.73;;;1.30;;
14414;SDS011;7307;50.852;4.314;2022-11-02T04:58:25;4.00;;;1.20;;
14414;SDS011;7307;50.852;4.314;2022-11-02T05:00:51;2.93;;;1.20;;
14414;SDS011;7307;50.852;4.314;2022-11-02T05:03:17;4.10;;;1.10;;
14414;SDS011;7307;50.852;4.314;2022-11-02T05:05:42;4.87;;;1.30;;
14414;SDS011;7307;50.852;4.314;2022-11-02T05:08:08;2.43;;;1.10;;
14414;SDS011;7307;50.852;4.314;2022-11-02T05:10:34;2.20;;;1.20;;
14414;SDS011;7307;50.852;4.314;2022-11-02T05:13:00;3.13;;;1.10;;
14414;SDS011;7307;50.852;4.314;2022-11-02T05:15:26;3.80;;;1.40;;
14414;SDS011;7307;50.852;4.314;2022-11-02T05:17:51;2.67;;;1.27;;
14414;SDS011;7307;50.852;4.314;2022-11-02T05:20:17;2.63;;;1.27;;
14414;SDS011;7307;50.852;4.314;2022-11-02T05:22:43;4.33;;;1.13;;
14414;SDS011;7307;50.852;4.314;2022-11-02T05:25:09;3.93;;;1.10;;
14414;SDS011;7307;50.852;4.314;2022-11-02T05:27:35;2.97;;;1.17;;
14414;SDS011;7307;50.852;4.314;2022-11-02T05:30:02;2.63;;;1.10;;
14414;SDS011;7307;50.852;4.314;2022-11-02T05:32:29;4.13;;;1.30;;
14414;SDS011;7307;50.852;4.314;2022-11-02T05:34:54;6.13;;;1.10;;
14414;SDS011;7307;50.852;4.314;2022-11-02T05:37:20;8.63;;;2.87;;
14414;SDS011;7307;50.852;4.314;2022-11-02T05:39:46;14.67;;;3.03;;
14414;SDS011;7307;50.852;4.314;2022-11-02T05:42:11;15.07;;;2.60;;
14414;SDS011;7307;50.852;4.314;2022-11-02T05:44:37;15.83;;;2.67;;
14414;SDS011;7307;50.852;4.314;2022-11-02T05:47:03;9.20;;;2.93;;
14414;SDS011;7307;50.852;4.314;2022-11-02T05:49:29;13.10;;;3.17;;
14414;SDS011;7307;50.852;4.314;2022-11-02T05:51:55;9.70;;;2.43;;
14414;SDS011;7307;50.852;4.314;2022-11-02T05:54:20;12.30;;;2.40;;
14414;SDS011;7307;50.852;4.314;2022-11-02T05:56:46;14.00;;;3.20;;
14414;SDS011;7307;50.852;4.314;2022-11-02T05:59:12;11.33;;;3.03;;
14414;SDS011;7307;50.852;4.314;2022-11-02T06:01:37;16.23;;;2.73;;
14414;SDS011;7307;50.852;4.314;2022-11-02T06:04:03;11.63;;;2.70;;
14414;SDS011;7307;50.852;4.314;2022-11-02T06:06:29;12.53;;;3.30;;
14414;SDS011;7307;50.852;4.314;2022-11-02T06:08:55;9.97;;;3.00;;
14414;SDS011;7307;50.852;4.314;2022-11-02T06:11:21;8.77;;;2.57;;
14414;SDS011;7307;50.852;4.314;2022-11-02T06:13:47;12.00;;;3.63;;
14414;SDS011;7307;50.852;4.314;2022-11-02T06:16:14;14.60;;;3.47;;
14414;SDS011;7307;50.852;4.314;2022-11-02T06:18:41;13.47;;;3.17;;
14414;SDS011;7307;50.852;4.314;2022-11-02T06:21:07;10.83;;;2.63;;
14414;SDS011;7307;50.852;4.314;2022-11-02T06:23:33;9.87;;;2.57;;
14414;SDS011;7307;50.852;4.314;2022-11-02T06:25:59;9.67;;;2.60;;
14414;SDS011;7307;50.852;4.314;2022-11-02T06:28:26;9.77;;;3.20;;
14414;SDS011;7307;50.852;4.314;2022-11-02T06:30:52;13.67;;;3.00;;
14414;SDS011;7307;50.852;4.314;2022-11-02T06:33:18;11.37;;;2.63;;
14414;SDS011;7307;50.852;4.314;2022-11-02T06:35:48;10.00;;;2.77;;
14414;SDS011;7307;50.852;4.314;2022-11-02T06:38:15;11.23;;;2.53;;
14414;SDS011;7307;50.852;4.314;2022-11-02T06:40:41;8.00;;;2.77;;
14414;SDS011;7307;50.852;4.314;2022-11-02T06:43:07;7.07;;;2.47;;
14414;SDS011;7307;50.852;4.314;2022-11-02T06:45:33;10.23;;;1.83;;
14414;SDS011;7307;50.852;4.314;2022-11-02T06:47:58;8.53;;;2.20;;
14414;SDS011;7307;50.852;4.314;2022-11-02T06:50:24;12.53;;;3.57;;
14414;SDS011;7307;50.852;4.314;2022-11-02T06:52:50;10.33;;;2.83;;
14414;SDS011;7307;50.852;4.314;2022-11-02T06:55:16;13.53;;;2.93;;
14414;SDS011;7307;50.852;4.314;2022-11-02T06:57:43;13.70;;;3.00;;
14414;SDS011;7307;50.852;4.314;2022-11-02T07:00:12;8.80;;;2.50;;
14414;SDS011;7307;50.852;4.314;2022-11-02T07:02:41;11.13;;;2.67;;
14414;SDS011;7307;50.852;4.314;2022-11-02T07:05:10;8.97;;;2.90;;
14414;SDS011;7307;50.852;4.314;2022-11-02T07:07:37;13.10;;;3.60;;
14414;SDS011;7307;50.852;4.314;2022-11-02T07:10:03;13.73;;;3.47;;
14414;SDS011;7307;50.852;4.314;2022-11-02T07:12:31;13.77;;;3.27;;
14414;SDS011;7307;50.852;4.314;2022-11-02T07:14:57;14.13;;;3.20;;
14414;SDS011;7307;50.852;4.314;2022-11-02T07:17:22;14.10;;;4.10;;
14414;SDS011;7307;50.852;4.314;2022-11-02T07:19:48;11.90;;;3.37;;
14414;SDS011;7307;50.852;4.314;2022-11-02T07:22:13;9.67;;;3.03;;
14414;SDS011;7307;50.852;4.314;2022-11-02T07:24:39;10.57;;;3.00;;
14414;SDS011;7307;50.852;4.314;2022-11-02T07:27:05;12.50;;;2.90;;
14414;SDS011;7307;50.852;4.314;2022-11-02T07:29:30;12.40;;;3.53;;
14414;SDS011;7307;50.852;4.314;2022-11-02T07:31:56;10.60;;;3.03;;
14414;SDS011;7307;50.852;4.314;2022-11-02T07:34:22;10.87;;;2.53;;
14414;SDS011;7307;50.852;4.314;2022-11-02T07:36:47;11.37;;;3.17;;
14414;SDS011;7307;50.852;4.314;2022-11-02T07:39:13;9.97;;;2.60;;
14414;SDS011;7307;50.852;4.314;2022-11-02T07:41:38;10.87;;;2.93;;
14414;SDS011;7307;50.852;4.314;2022-11-02T07:44:04;8.23;;;2.90;;
14414;SDS011;7307;50.852;4.314;2022-11-02T07:46:30;8.80;;;2.87;;
14414;SDS011;7307;50.852;4.314;2022-11-02T07:48:56;13.83;;;3.40;;
14414;SDS011;7307;50.852;4.314;2022-11-02T07:51:22;8.70;;;2.67;;
14414;SDS011;7307;50.852;4.314;2022-11-02T07:53:48;12.07;;;3.30;;
14414;SDS011;7307;50.852;4.314;2022-11-02T07:56:14;9.37;;;2.70;;
14414;SDS011;7307;50.852;4.314;2022-11-02T07:58:39;10.27;;;2.87;;
14414;SDS011;7307;50.852;4.314;2022-11-02T08:01:05;11.53;;;2.87;;
14414;SDS011;7307;50.852;4.314;2022-11-02T08:03:30;12.33;;;3.07;;
14414;SDS011;7307;50.852;4.314;2022-11-02T08:05:59;10.40;;;3.10;;
14414;SDS011;7307;50.852;4.314;2022-11-02T08:08:28;8.67;;;2.73;;
14414;SDS011;7307;50.852;4.314;2022-11-02T08:10:54;10.43;;;2.30;;
14414;SDS011;7307;50.852;4.314;2022-11-02T08:13:21;8.03;;;2.83;;
14414;SDS011;7307;50.852;4.314;2022-11-02T08:15:48;9.30;;;2.33;;
14414;SDS011;7307;50.852;4.314;2022-11-02T08:18:19;11.33;;;2.67;;
14414;SDS011;7307;50.852;4.314;2022-11-02T08:20:46;8.57;;;2.83;;
14414;SDS011;7307;50.852;4.314;2022-11-02T08:23:13;9.97;;;2.80;;
14414;SDS011;7307;50.852;4.314;2022-11-02T08:25:40;6.83;;;2.63;;
14414;SDS011;7307;50.852;4.314;2022-11-02T08:28:06;9.97;;;2.60;;
14414;SDS011;7307;50.852;4.314;2022-11-02T08:30:44;8.87;;;2.67;;
14414;SDS011;7307;50.852;4.314;2022-11-02T08:33:11;6.80;;;2.10;;
14414;SDS011;7307;50.852;4.314;2022-11-02T08:35:39;7.87;;;2.77;;
14414;SDS011;7307;50.852;4.314;2022-11-02T08:38:06;7.23;;;2.53;;
14414;SDS011;7307;50.852;4.314;2022-11-02T08:40:33;8.67;;;2.47;;
14414;SDS011;7307;50.852;4.314;2022-11-02T08:43:00;7.23;;;2.57;;
14414;SDS011;7307;50.852;4.314;2022-11-02T08:45:34;8.90;;;2.70;;
14414;SDS011;7307;50.852;4.314;2022-11-02T08:48:02;6.00;;;2.17;;
14414;SDS011;7307;50.852;4.314;2022-11-02T08:50:28;9.90;;;2.93;;
14414;SDS011;7307;50.852;4.314;2022-11-02T08:52:54;6.87;;;2.67;;
14414;SDS011;7307;50.852;4.314;2022-11-02T08:55:20;8.03;;;2.63;;
14414;SDS011;7307;50.852;4.314;2022-11-02T08:57:49;7.37;;;2.77;;
14414;SDS011;7307;50.852;4.314;2022-11-02T09:00:17;8.83;;;2.33;;
14414;SDS011;7307;50.852;4.314;2022-11-02T09:02:56;7.37;;;2.37;;
14414;SDS011;7307;50.852;4.314;2022-11-02T09:05:33;5.90;;;2.27;;
14414;SDS011;7307;50.852;4.314;2022-11-02T09:08:04;4.83;;;2.03;;
14414;SDS011;7307;50.852;4.314;2022-11-02T09:10:32;6.57;;;2.43;;
14414;SDS011;7307;50.852;4.314;2022-11-02T09:12:59;8.70;;;2.40;;
14414;SDS011;7307;50.852;4.314;2022-11-02T09:15:26;6.93;;;2.57;;
14414;SDS011;7307;50.852;4.314;2022-11-02T09:17:53;7.77;;;2.27;;
14414;SDS011;7307;50.852;4.314;2022-11-02T09:20:19;7.57;;;2.30;;
14414;SDS011;7307;50.852;4.314;2022-11-02T09:22:45;9.53;;;2.57;;
14414;SDS011;7307;50.852;4.314;2022-11-02T09:25:11;7.67;;;2.13;;
14414;SDS011;7307;50.852;4.314;2022-11-02T09:27:39;5.63;;;2.30;;
14414;SDS011;7307;50.852;4.314;2022-11-02T09:30:05;6.20;;;2.10;;
14414;SDS011;7307;50.852;4.314;2022-11-02T09:32:31;8.47;;;2.10;;
14414;SDS011;7307;50.852;4.314;2022-11-02T09:35:00;5.80;;;2.33;;
14414;SDS011;7307;50.852;4.314;2022-11-02T09:37:36;6.67;;;2.37;;
14414;SDS011;7307;50.852;4.314;2022-11-02T09:40:03;6.43;;;2.20;;
14414;SDS011;7307;50.852;4.314;2022-11-02T09:42:44;4.23;;;2.03;;
14414;SDS011;7307;50.852;4.314;2022-11-02T09:45:21;6.57;;;2.10;;
14414;SDS011;7307;50.852;4.314;2022-11-02T09:47:49;7.17;;;2.13;;
14414;SDS011;7307;50.852;4.314;2022-11-02T09:50:20;6.27;;;1.77;;
14414;SDS011;7307;50.852;4.314;2022-11-02T09:52:55;6.57;;;2.50;;
14414;SDS011;7307;50.852;4.314;2022-11-02T09:55:27;6.03;;;2.10;;
14414;SDS011;7307;50.852;4.314;2022-11-02T09:58:16;6.27;;;2.00;;
14414;SDS011;7307;50.852;4.314;2022-11-02T10:00:46;6.47;;;2.30;;
14414;SDS011;7307;50.852;4.314;2022-11-02T10:03:19;6.23;;;2.47;;
14414;SDS011;7307;50.852;4.314;2022-11-02T10:06:16;4.83;;;2.23;;
14414;SDS011;7307;50.852;4.314;2022-11-02T10:08:59;6.90;;;2.43;;
14414;SDS011;7307;50.852;4.314;2022-11-02T10:14:20;6.00;;;2.13;;
14414;SDS011;7307;50.852;4.314;2022-11-02T10:17:14;6.77;;;2.27;;
14414;SDS011;7307;50.852;4.314;2022-11-02T10:19:46;7.07;;;2.40;;
14414;SDS011;7307;50.852;4.314;2022-11-02T10:22:18;6.33;;;2.00;;
14414;SDS011;7307;50.852;4.314;2022-11-02T10:24:46;5.70;;;2.03;;
14414;SDS011;7307;50.852;4.314;2022-11-02T10:32:24;5.23;;;2.07;;
14414;SDS011;7307;50.852;4.314;2022-11-02T10:34:50;5.23;;;1.97;;
14414;SDS011;7307;50.852;4.314;2022-11-02T10:37:20;5.10;;;2.07;;
14414;SDS011;7307;50.852;4.314;2022-11-02T10:40:24;5.80;;;2.10;;
14414;SDS011;7307;50.852;4.314;2022-11-02T10:42:53;5.20;;;2.00;;
14414;SDS011;7307;50.852;4.314;2022-11-02T10:53:13;6.17;;;2.27;;
14414;SDS011;7307;50.852;4.314;2022-11-02T10:55:44;5.80;;;2.13;;
14414;SDS011;7307;50.852;4.314;2022-11-02T10:58:32;5.20;;;1.70;;
14414;SDS011;7307;50.852;4.314;2022-11-02T11:01:04;5.23;;;1.83;;
14414;SDS011;7307;50.852;4.314;2022-11-02T11:03:31;6.13;;;2.10;;
14414;SDS011;7307;50.852;4.314;2022-11-02T11:06:01;6.63;;;1.80;;
14414;SDS011;7307;50.852;4.314;2022-11-02T11:08:29;6.27;;;1.87;;
14414;SDS011;7307;50.852;4.314;2022-11-02T11:16:40;5.60;;;2.50;;
14414;SDS011;7307;50.852;4.314;2022-11-02T11:21:47;7.00;;;2.10;;
14414;SDS011;7307;50.852;4.314;2022-11-02T11:24:18;5.53;;;2.03;;
14414;SDS011;7307;50.852;4.314;2022-11-02T11:26:45;6.30;;;2.07;;
14414;SDS011;7307;50.852;4.314;2022-11-02T11:29:23;3.57;;;1.60;;
14414;SDS011;7307;50.852;4.314;2022-11-02T11:31:49;7.37;;;2.10;;
14414;SDS011;7307;50.852;4.314;2022-11-02T11:34:22;4.57;;;1.80;;
14414;SDS011;7307;50.852;4.314;2022-11-02T11:36:50;4.27;;;1.50;;
14414;SDS011;7307;50.852;4.314;2022-11-02T11:41:52;4.43;;;1.83;;
14414;SDS011;7307;50.852;4.314;2022-11-02T11:44:17;4.27;;;1.70;;
14414;SDS011;7307;50.852;4.314;2022-11-02T11:46:51;5.10;;;2.00;;
14414;SDS011;7307;50.852;4.314;2022-11-02T11:49:23;4.67;;;2.10;;
14414;SDS011;7307;50.852;4.314;2022-11-02T11:51:51;4.57;;;1.80;;
14414;SDS011;7307;50.852;4.314;2022-11-02T11:54:31;4.33;;;1.80;;
14414;SDS011;7307;50.852;4.314;2022-11-02T11:59:28;5.73;;;1.83;;
14414;SDS011;7307;50.852;4.314;2022-11-02T12:04:57;4.53;;;1.70;;
14414;SDS011;7307;50.852;4.314;2022-11-02T12:10:21;4.20;;;1.77;;
14414;SDS011;7307;50.852;4.314;2022-11-02T12:14:08;4.20;;;1.40;;
14414;SDS011;7307;50.852;4.314;2022-11-02T12:24:06;4.67;;;1.50;;
14414;SDS011;7307;50.852;4.314;2022-11-02T12:27:18;6.73;;;1.90;;
14414;SDS011;7307;50.852;4.314;2022-11-02T12:44:18;4.37;;;1.70;;
14414;SDS011;7307;50.852;4.314;2022-11-02T12:52:09;4.17;;;1.50;;
14414;SDS011;7307;50.852;4.314;2022-11-02T12:54:46;4.27;;;1.70;;
14414;SDS011;7307;50.852;4.314;2022-11-02T12:57:16;7.47;;;1.77;;
14414;SDS011;7307;50.852;4.314;2022-11-02T12:59:45;3.73;;;1.93;;
14414;SDS011;7307;50.852;4.314;2022-11-02T13:02:26;4.17;;;1.50;;
14414;SDS011;7307;50.852;4.314;2022-11-02T13:07:27;4.13;;;1.40;;
14414;SDS011;7307;50.852;4.314;2022-11-02T13:10:27;4.53;;;1.57;;
14414;SDS011;7307;50.852;4.314;2022-11-02T13:12:56;4.93;;;1.60;;
14414;SDS011;7307;50.852;4.314;2022-11-02T13:15:24;2.47;;;1.17;;
14414;SDS011;7307;50.852;4.314;2022-11-02T13:17:58;4.30;;;1.60;;
14414;SDS011;7307;50.852;4.314;2022-11-02T13:20:29;4.43;;;1.50;;
14414;SDS011;7307;50.852;4.314;2022-11-02T13:25:58;5.53;;;1.77;;
14414;SDS011;7307;50.852;4.314;2022-11-02T13:31:15;3.80;;;1.57;;
14414;SDS011;7307;50.852;4.314;2022-11-02T13:33:47;3.80;;;1.50;;
14414;SDS011;7307;50.852;4.314;2022-11-02T13:36:16;4.60;;;1.50;;
14414;SDS011;7307;50.852;4.314;2022-11-02T13:41:27;5.43;;;1.50;;
14414;SDS011;7307;50.852;4.314;2022-11-02T13:47:37;3.50;;;1.50;;
14414;SDS011;7307;50.852;4.314;2022-11-02T13:50:09;3.33;;;1.20;;
14414;SDS011;7307;50.852;4.314;2022-11-02T13:52:39;3.30;;;1.30;;
14414;SDS011;7307;50.852;4.314;2022-11-02T13:55:14;3.83;;;1.53;;
14414;SDS011;7307;50.852;4.314;2022-11-02T13:57:48;3.67;;;1.60;;
14414;SDS011;7307;50.852;4.314;2022-11-02T14:03:18;3.67;;;1.43;;
14414;SDS011;7307;50.852;4.314;2022-11-02T14:05:59;5.00;;;1.60;;
14414;SDS011;7307;50.852;4.314;2022-11-02T14:08:33;4.70;;;1.30;;
14414;SDS011;7307;50.852;4.314;2022-11-02T14:19:51;3.00;;;1.37;;
14414;SDS011;7307;50.852;4.314;2022-11-02T14:22:13;3.17;;;1.33;;
14414;SDS011;7307;50.852;4.314;2022-11-02T14:49:17;4.23;;;1.60;;
14414;SDS011;7307;50.852;4.314;2022-11-02T14:51:57;3.20;;;1.40;;
14414;SDS011;7307;50.852;4.314;2022-11-02T14:54:29;4.30;;;1.20;;
14414;SDS011;7307;50.852;4.314;2022-11-02T14:57:02;2.83;;;1.43;;
14414;SDS011;7307;50.852;4.314;2022-11-02T14:59:32;4.60;;;1.60;;
14414;SDS011;7307;50.852;4.314;2022-11-02T15:02:21;5.00;;;1.63;;
14414;SDS011;7307;50.852;4.314;2022-11-02T15:04:59;3.63;;;1.60;;
14414;SDS011;7307;50.852;4.314;2022-11-02T15:10:03;3.80;;;1.27;;
14414;SDS011;7307;50.852;4.314;2022-11-02T15:13:00;3.50;;;1.40;;
14414;SDS011;7307;50.852;4.314;2022-11-02T15:15:43;3.03;;;1.63;;
14414;SDS011;7307;50.852;4.314;2022-11-02T15:26:41;2.00;;;1.03;;
14414;SDS011;7307;50.852;4.314;2022-11-02T15:29:52;2.33;;;1.30;;
14414;SDS011;7307;50.852;4.314;2022-11-02T15:32:06;2.90;;;1.40;;
14414;SDS011;7307;50.852;4.314;2022-11-02T15:34:41;4.03;;;1.27;;
14414;SDS011;7307;50.852;4.314;2022-11-02T15:37:26;2.47;;;1.23;;
14414;SDS011;7307;50.852;4.314;2022-11-02T15:39:55;3.03;;;1.23;;
14414;SDS011;7307;50.852;4.314;2022-11-02T15:48:08;3.47;;;1.47;;
14414;SDS011;7307;50.852;4.314;2022-11-02T15:53:38;3.30;;;1.33;;
14414;SDS011;7307;50.852;4.314;2022-11-02T16:01:36;2.67;;;1.20;;
14414;SDS011;7307;50.852;4.314;2022-11-02T16:04:04;3.87;;;1.23;;
14414;SDS011;7307;50.852;4.314;2022-11-02T16:06:38;2.17;;;1.10;;
14414;SDS011;7307;50.852;4.314;2022-11-02T16:14:36;2.37;;;1.20;;
14414;SDS011;7307;50.852;4.314;2022-11-02T16:17:03;3.83;;;1.23;;
14414;SDS011;7307;50.852;4.314;2022-11-02T16:19:29;2.53;;;1.10;;
14414;SDS011;7307;50.852;4.314;2022-11-02T16:21:55;3.10;;;1.07;;
14414;SDS011;7307;50.852;4.314;2022-11-02T16:24:21;2.87;;;1.30;;
14414;SDS011;7307;50.852;4.314;2022-11-02T16:26:47;2.87;;;1.20;;
14414;SDS011;7307;50.852;4.314;2022-11-02T16:29:21;2.97;;;1.20;;
14414;SDS011;7307;50.852;4.314;2022-11-02T16:32:00;2.73;;;1.07;;
14414;SDS011;7307;50.852;4.314;2022-11-02T16:34:29;2.73;;;1.37;;
14414;SDS011;7307;50.852;4.314;2022-11-02T16:36:56;4.93;;;1.23;;
14414;SDS011;7307;50.852;4.314;2022-11-02T16:39:25;2.90;;;1.50;;
14414;SDS011;7307;50.852;4.314;2022-11-02T16:41:54;2.60;;;1.10;;
14414;SDS011;7307;50.852;4.314;2022-11-02T16:46:52;3.73;;;1.20;;
14414;SDS011;7307;50.852;4.314;2022-11-02T16:52:18;3.53;;;1.20;;
14414;SDS011;7307;50.852;4.314;2022-11-02T16:54:49;5.20;;;1.67;;
14414;SDS011;7307;50.852;4.314;2022-11-02T16:57:22;5.80;;;1.33;;
14414;SDS011;7307;50.852;4.314;2022-11-02T17:02:27;3.13;;;1.30;;
14414;SDS011;7307;50.852;4.314;2022-11-02T17:04:59;6.13;;;1.43;;
14414;SDS011;7307;50.852;4.314;2022-11-02T17:09:59;4.37;;;1.37;;
14414;SDS011;7307;50.852;4.314;2022-11-02T17:12:29;4.13;;;1.27;;
14414;SDS011;7307;50.852;4.314;2022-11-02T17:15:13;2.60;;;1.00;;
14414;SDS011;7307;50.852;4.314;2022-11-02T17:17:48;3.20;;;1.20;;
14414;SDS011;7307;50.852;4.314;2022-11-02T17:20:34;7.03;;;1.53;;
14414;SDS011;7307;50.852;4.314;2022-11-02T17:23:14;3.77;;;1.20;;
14414;SDS011;7307;50.852;4.314;2022-11-02T17:26:16;2.03;;;0.93;;
14414;SDS011;7307;50.852;4.314;2022-11-02T17:28:54;3.20;;;1.10;;
14414;SDS011;7307;50.852;4.314;2022-11-02T17:33:52;4.97;;;1.07;;
14414;SDS011;7307;50.852;4.314;2022-11-02T17:36:18;4.50;;;1.30;;
14414;SDS011;7307;50.852;4.314;2022-11-02T17:38:44;2.83;;;1.27;;
14414;SDS011;7307;50.852;4.314;2022-11-02T17:41:10;4.73;;;1.50;;
14414;SDS011;7307;50.852;4.314;2022-11-02T17:44:00;3.70;;;1.50;;
14414;SDS011;7307;50.852;4.314;2022-11-02T17:46:27;3.13;;;1.20;;
14414;SDS011;7307;50.852;4.314;2022-11-02T17:48:53;5.03;;;1.27;;
14414;SDS011;7307;50.852;4.314;2022-11-02T17:51:19;3.00;;;1.00;;
14414;SDS011;7307;50.852;4.314;2022-11-02T17:53:50;3.77;;;1.13;;
14414;SDS011;7307;50.852;4.314;2022-11-02T17:56:15;1.97;;;1.00;;
14414;SDS011;7307;50.852;4.314;2022-11-02T17:58:41;3.57;;;1.47;;
14414;SDS011;7307;50.852;4.314;2022-11-02T18:01:08;2.47;;;1.20;;
14414;SDS011;7307;50.852;4.314;2022-11-02T18:03:36;3.20;;;1.10;;
14414;SDS011;7307;50.852;4.314;2022-11-02T18:06:02;3.10;;;1.10;;
14414;SDS011;7307;50.852;4.314;2022-11-02T18:08:27;2.20;;;0.93;;
14414;SDS011;7307;50.852;4.314;2022-11-02T18:10:53;3.87;;;1.20;;
14414;SDS011;7307;50.852;4.314;2022-11-02T18:13:19;5.70;;;1.10;;
14414;SDS011;7307;50.852;4.314;2022-11-02T18:15:46;3.00;;;1.23;;
14414;SDS011;7307;50.852;4.314;2022-11-02T18:18:12;3.07;;;1.30;;
14414;SDS011;7307;50.852;4.314;2022-11-02T18:20:38;2.30;;;1.30;;
14414;SDS011;7307;50.852;4.314;2022-11-02T18:23:04;3.43;;;1.20;;
14414;SDS011;7307;50.852;4.314;2022-11-02T18:25:31;2.10;;;1.00;;
14414;SDS011;7307;50.852;4.314;2022-11-02T18:27:58;2.67;;;1.17;;
14414;SDS011;7307;50.852;4.314;2022-11-02T18:30:26;5.10;;;1.27;;
14414;SDS011;7307;50.852;4.314;2022-11-02T18:32:56;4.27;;;1.33;;
14414;SDS011;7307;50.852;4.314;2022-11-02T18:35:24;2.60;;;1.00;;